Terminal Aerodrome Forecast
Issued by NWS

Home | Current Version | Previous Version | Text Only | Print | Product List | Glossary On
Versions: 1 2 3 4 5 6 7 8 9 10 11 12 13 14 15 16 17 18 19 20 21 22 23 24 25 26 27 28 29
000
FTUS41 KPHI 262300
TAFPNE
TAF
KPNE 262325Z 2700/2724 04014G24KT 6SM -SN BKN015 OVC040
      TEMPO 2700/2701 3SM -SN
     FM270100 02016G26KT 2SM -SN OVC006
     FM270300 01020G28KT 1/2SM SN FG OVC005
     FM271500 35018G28KT 2SM -SN BLSN OVC010
     FM271800 34017G27KT 4SM -SN BLSN OVC015
     FM272200 32015G26KT P6SM SCT025 BKN080=

USA.gov is the U.S. government's official web portal to all federal, state and local government web resources and services.